Time;durP1;ratioP1;P1;durP2;ratioP2;P2;SDS_P1;SDS_P2;PMS_P1;PMS_P2;Temp;Humidity;BMP_temperature;BMP_pressure;BME280_temperature;BME280_humidity;BME280_pressure;Samples;Min_cycle;Max_cycle;Signal;HPM_P1;HPM_P2
2020/12/13 00:03:07;;;;;;;22.15;11.70;;;7.10;99.90;;;;;;6761364;88;20315;-76
2020/12/13 00:13:07;;;;;;;21.67;12.10;;;7.20;99.90;;;;;;6759733;88;20203;-76
2020/12/13 00:23:08;;;;;;;21.75;11.85;;;7.30;99.90;;;;;;6759963;88;20221;-75
2020/12/13 00:33:08;;;;;;;20.42;11.20;;;7.20;99.90;;;;;;6760884;88;20180;-76
2020/12/13 00:43:09;;;;;;;19.95;11.73;;;7.10;99.90;;;;;;6757993;88;20228;-74
2020/12/13 00:53:09;;;;;;;20.77;11.65;;;7.20;99.90;;;;;;6748931;88;20188;-75
2020/12/13 01:03:10;;;;;;;20.00;11.13;;;7.00;99.90;;;;;;6759103;88;20225;-76
2020/12/13 01:13:10;;;;;;;19.00;11.35;;;7.10;99.90;;;;;;6754681;88;20647;-76
2020/12/13 01:23:11;;;;;;;18.83;11.32;;;7.30;99.90;;;;;;6754524;88;20633;-76
2020/12/13 01:33:11;;;;;;;21.08;11.10;;;7.40;99.90;;;;;;6751352;88;21122;-75
2020/12/13 01:43:12;;;;;;;17.67;10.73;;;7.40;99.90;;;;;;6753676;88;20320;-75
2020/12/13 01:53:15;;;;;;;19.83;11.20;;;7.40;99.90;;;;;;6737164;88;20257;-76
2020/12/13 02:03:28;;;;;;;19.58;10.05;;;7.40;99.90;;;;;;6749638;88;20648;-76
2020/12/13 02:13:29;;;;;;;18.45;10.50;;;7.30;99.90;;;;;;6755577;88;20179;-75
2020/12/13 02:23:30;;;;;;;19.35;10.82;;;7.30;99.90;;;;;;6740174;88;20196;-76
2020/12/13 02:33:31;;;;;;;18.20;11.20;;;7.40;99.90;;;;;;6736890;88;20648;-76
2020/12/13 02:43:32;;;;;;;16.67;10.18;;;7.40;99.90;;;;;;6738372;88;20751;-76
2020/12/13 02:53:32;;;;;;;17.87;10.35;;;7.20;99.90;;;;;;6740315;88;20204;-76
2020/12/13 03:03:33;;;;;;;18.58;10.32;;;7.40;99.90;;;;;;6740861;88;20345;-76
2020/12/13 03:13:33;;;;;;;16.25;8.70;;;7.50;99.90;;;;;;6739694;88;20234;-77
2020/12/13 03:23:34;;;;;;;14.70;7.75;;;7.50;99.90;;;;;;6737349;88;20330;-76
2020/12/13 03:33:34;;;;;;;12.30;6.57;;;7.70;99.90;;;;;;6743810;88;20181;-75
2020/12/13 03:43:35;;;;;;;11.90;7.00;;;7.90;99.90;;;;;;6740328;88;20221;-75
2020/12/13 03:53:35;;;;;;;11.23;6.32;;;7.80;99.90;;;;;;6741920;88;20242;-76
2020/12/13 04:03:36;;;;;;;11.90;6.37;;;7.70;99.90;;;;;;6739521;88;20230;-74
2020/12/13 04:13:36;;;;;;;11.82;6.60;;;7.90;99.90;;;;;;6740289;88;20181;-75
2020/12/13 04:23:37;;;;;;;13.27;6.97;;;7.80;99.90;;;;;;6740605;88;20673;-75
2020/12/13 04:33:37;;;;;;;13.95;7.15;;;7.50;99.90;;;;;;6743577;88;20311;-77
2020/12/13 04:43:39;;;;;;;15.88;7.47;;;7.60;99.90;;;;;;6749699;88;20188;-75
2020/12/13 04:53:48;;;;;;;13.45;7.22;;;7.60;99.90;;;;;;6748476;88;20599;-75
2020/12/13 05:03:49;;;;;;;14.20;6.60;;;7.70;99.90;;;;;;6741934;88;21021;-75
2020/12/13 05:13:49;;;;;;;11.52;6.45;;;7.90;99.90;;;;;;6747300;88;20202;-75
2020/12/13 05:23:51;;;;;;;11.63;5.78;;;7.70;99.90;;;;;;6735872;88;20204;-75
2020/12/13 05:34:07;;;;;;;8.10;4.93;;;7.80;99.90;;;;;;6750640;88;20998;-75
2020/12/13 05:54:30;;;;;;;8.23;4.40;;;8.00;99.90;;;;;;6748509;88;20305;-75
2020/12/13 06:04:32;;;;;;;7.85;3.72;;;7.80;99.90;;;;;;6743944;88;20188;-76
2020/12/13 06:14:34;;;;;;;9.27;3.83;;;7.90;99.90;;;;;;6745668;88;20220;-75
2020/12/13 06:24:34;;;;;;;6.93;3.87;;;7.80;99.90;;;;;;6741041;88;20814;-76
2020/12/13 06:34:35;;;;;;;6.62;4.00;;;7.70;99.90;;;;;;6745552;88;20229;-75
2020/12/13 06:44:37;;;;;;;6.35;3.42;;;7.60;99.90;;;;;;6745776;88;20203;-75
2020/12/13 06:54:38;;;;;;;6.28;3.72;;;7.50;99.90;;;;;;6739444;88;20185;-75
2020/12/13 07:04:49;;;;;;;7.80;4.00;;;7.50;99.90;;;;;;6748745;88;20708;-76
2020/12/13 07:14:50;;;;;;;8.30;3.95;;;7.40;99.90;;;;;;6739104;88;20207;-75
2020/12/13 07:24:51;;;;;;;8.00;4.10;;;7.40;99.90;;;;;;6735298;88;20776;-75
2020/12/13 07:34:52;;;;;;;6.18;3.40;;;7.40;99.90;;;;;;6744238;88;20197;-74
2020/12/13 07:44:58;;;;;;;6.78;3.22;;;7.40;99.90;;;;;;6736004;88;20238;-74
2020/12/13 07:55:06;;;;;;;5.33;3.00;;;7.50;99.90;;;;;;6735337;88;20189;-75
2020/12/13 08:05:07;;;;;;;6.30;3.15;;;7.50;99.90;;;;;;6740211;88;20206;-76
2020/12/13 08:15:13;;;;;;;7.25;3.28;;;7.30;99.90;;;;;;6730484;88;20191;-76
2020/12/13 08:25:15;;;;;;;6.10;3.08;;;7.30;99.90;;;;;;6737715;88;20758;-76
2020/12/13 08:35:18;;;;;;;6.78;3.80;;;7.60;99.90;;;;;;6737660;87;20209;-76
2020/12/13 08:45:24;;;;;;;7.20;4.53;;;7.60;99.90;;;;;;6732775;88;20936;-76
2020/12/13 08:55:28;;;;;;;6.87;3.67;;;7.50;99.90;;;;;;6736577;88;20745;-76
2020/12/13 09:05:33;;;;;;;7.70;3.28;;;7.60;99.90;;;;;;6733015;88;20715;-75
2020/12/13 09:15:34;;;;;;;6.30;3.47;;;7.80;99.90;;;;;;6735774;88;21135;-76
2020/12/13 09:25:43;;;;;;;5.53;3.00;;;7.90;99.90;;;;;;6735231;88;20228;-76
2020/12/13 09:35:44;;;;;;;5.75;2.90;;;8.10;99.90;;;;;;6736805;88;20701;-74
2020/12/13 09:45:44;;;;;;;3.72;2.12;;;8.30;99.90;;;;;;6732442;88;20206;-75
2020/12/13 09:55:45;;;;;;;4.62;2.50;;;9.50;99.90;;;;;;6732868;88;20313;-75
2020/12/13 10:06:33;;;;;;;4.07;2.50;;;9.50;99.90;;;;;;6737101;88;20221;-76
2020/12/13 10:16:10;;;;;;;4.25;2.33;;;10.10;99.90;;;;;;6736587;88;20185;-75
2020/12/13 10:26:11;;;;;;;4.22;2.50;;;10.00;99.90;;;;;;6738323;88;20210;-76
2020/12/13 10:36:13;;;;;;;5.37;2.57;;;9.70;99.90;;;;;;6733715;88;20208;-76
2020/12/13 10:46:14;;;;;;;5.07;2.80;;;9.50;99.90;;;;;;6733959;88;21091;-76
2020/12/13 10:56:15;;;;;;;5.43;3.00;;;9.40;99.90;;;;;;6736765;88;20217;-75
2020/12/13 11:06:15;;;;;;;3.75;1.60;;;8.90;99.90;;;;;;6727078;88;20165;-76
2020/12/13 11:16:16;;;;;;;4.80;1.30;;;9.10;99.90;;;;;;6739678;88;20222;-77
2020/12/13 11:26:17;;;;;;;4.03;1.30;;;11.00;99.90;;;;;;6749816;88;20251;-77
2020/12/13 11:36:17;;;;;;;2.12;0.80;;;12.20;99.90;;;;;;6739498;87;20204;-77
2020/12/13 11:46:18;;;;;;;3.05;0.88;;;12.10;99.90;;;;;;6738452;88;20185;-76
2020/12/13 11:56:23;;;;;;;2.80;0.90;;;11.40;99.90;;;;;;6720333;88;20207;-77
2020/12/13 12:06:23;;;;;;;2.08;1.08;;;11.30;99.90;;;;;;6735692;88;20241;-75
2020/12/13 12:16:26;;;;;;;2.50;0.70;;;11.00;99.90;;;;;;6739190;88;20214;-74
2020/12/13 12:26:33;;;;;;;2.05;0.65;;;10.80;99.90;;;;;;6742358;88;20186;-74
2020/12/13 12:36:34;;;;;;;2.22;0.90;;;10.90;99.90;;;;;;6741742;88;20237;-77
2020/12/13 12:46:35;;;;;;;3.10;1.10;;;10.40;99.90;;;;;;6741266;88;20187;-77
2020/12/13 12:56:41;;;;;;;2.75;0.60;;;11.40;99.90;;;;;;6739096;88;20289;-77
2020/12/13 13:27:20;;;;;;;6.90;1.33;;;14.20;96.30;;;;;;6734143;88;20635;-73
2020/12/13 13:37:21;;;;;;;3.50;0.75;;;12.30;99.90;;;;;;6736865;88;20251;-74
2020/12/13 13:57:33;;;;;;;3.62;0.98;;;10.40;99.90;;;;;;6739945;88;20195;-78
2020/12/13 14:17:37;;;;;;;4.28;0.90;;;9.80;99.90;;;;;;6737830;88;20685;-75
2020/12/13 14:27:37;;;;;;;3.67;0.90;;;9.60;99.90;;;;;;6745899;88;20188;-75
2020/12/13 14:37:48;;;;;;;2.70;0.93;;;9.40;99.90;;;;;;6735060;88;20686;-75
2020/12/13 14:47:49;;;;;;;3.30;0.62;;;9.60;99.90;;;;;;6730598;88;20197;-76
2020/12/13 14:57:49;;;;;;;4.25;1.20;;;9.40;99.90;;;;;;6735390;88;20193;-76
2020/12/13 15:07:50;;;;;;;4.65;1.77;;;9.00;99.90;;;;;;6730607;88;20197;-76
2020/12/13 15:17:53;;;;;;;3.45;1.02;;;8.70;99.90;;;;;;6734763;88;20200;-73
2020/12/13 15:27:54;;;;;;;2.80;1.08;;;8.40;99.90;;;;;;6726987;88;20235;-73
2020/12/13 15:37:54;;;;;;;6.15;1.10;;;8.20;99.90;;;;;;6726533;88;20238;-74
2020/12/13 15:47:56;;;;;;;3.65;1.17;;;8.00;99.90;;;;;;6720551;88;20373;-76
2020/12/13 15:57:57;;;;;;;3.53;1.37;;;7.80;99.90;;;;;;6734663;88;20240;-76
2020/12/13 16:07:59;;;;;;;5.93;1.80;;;7.50;99.90;;;;;;6734826;88;20218;-76
2020/12/13 16:18:01;;;;;;;3.67;1.73;;;7.20;99.90;;;;;;6738378;88;20324;-77
2020/12/13 16:28:03;;;;;;;5.50;2.03;;;6.90;99.90;;;;;;6738796;88;20362;-77
2020/12/13 16:48:11;;;;;;;3.35;1.62;;;6.70;99.90;;;;;;6741938;88;20258;-78
2020/12/13 16:58:11;;;;;;;6.53;1.70;;;6.70;99.90;;;;;;6744622;88;20181;-77
2020/12/13 17:08:12;;;;;;;5.05;1.70;;;6.50;99.90;;;;;;6742493;88;20154;-78
2020/12/13 17:18:12;;;;;;;6.97;2.87;;;6.50;99.90;;;;;;6740885;88;20429;-77
2020/12/13 17:28:16;;;;;;;9.90;1.92;;;6.50;99.90;;;;;;6740827;88;20207;-79
2020/12/13 17:38:17;;;;;;;4.95;1.95;;;6.40;99.90;;;;;;6748580;87;20272;-78
2020/12/13 17:48:17;;;;;;;6.47;2.20;;;6.40;99.90;;;;;;6741858;88;20204;-76
2020/12/13 17:58:21;;;;;;;6.97;2.50;;;6.40;99.90;;;;;;6750002;88;20177;-79
2020/12/13 18:08:24;;;;;;;10.52;2.90;;;6.40;99.90;;;;;;6748255;88;20185;-77
2020/12/13 18:18:24;;;;;;;9.80;2.65;;;6.30;99.90;;;;;;6734998;88;20213;-74
2020/12/13 18:28:25;;;;;;;6.35;1.70;;;6.40;99.90;;;;;;6751897;88;20265;-77
2020/12/13 18:38:26;;;;;;;7.93;1.92;;;6.30;99.90;;;;;;6757777;87;20352;-78
2020/12/13 18:48:26;;;;;;;6.93;2.00;;;6.30;99.90;;;;;;6756793;88;20725;-78
2020/12/13 18:58:27;;;;;;;5.90;2.00;;;6.30;99.90;;;;;;6754446;88;20208;-78
2020/12/13 19:08:27;;;;;;;7.00;2.12;;;6.20;99.90;;;;;;6745064;88;20215;-78
2020/12/13 19:18:29;;;;;;;6.87;2.05;;;6.20;99.90;;;;;;6745619;88;20202;-77
2020/12/13 19:28:30;;;;;;;7.10;2.40;;;6.30;99.90;;;;;;6743277;88;20227;-77
2020/12/13 19:38:30;;;;;;;5.95;3.15;;;6.30;99.90;;;;;;6741756;88;20324;-77
2020/12/13 19:48:31;;;;;;;6.70;3.50;;;6.30;99.90;;;;;;6741485;88;20181;-77
2020/12/13 19:58:34;;;;;;;10.30;3.22;;;6.20;99.90;;;;;;6744473;88;20200;-78
2020/12/13 20:08:34;;;;;;;8.77;2.97;;;6.10;99.90;;;;;;6742004;88;20754;-78
2020/12/13 21:01:07;;;;;;;9.10;3.20;;;5.70;99.90;;;;;;6743812;88;20270;-76
2020/12/13 21:20:31;;;;;;;7.75;3.15;;;5.50;99.90;;;;;;6722148;88;20202;-77
2020/12/13 22:01:13;;;;;;;7.35;3.20;;;5.40;99.90;;;;;;6744423;88;20335;-77
2020/12/13 22:31:37;;;;;;;7.90;2.95;;;5.40;99.90;;;;;;6742202;88;20230;-77
2020/12/13 22:41:38;;;;;;;5.30;2.70;;;5.50;99.90;;;;;;6745267;88;20218;-77
2020/12/13 22:51:43;;;;;;;7.55;2.70;;;5.60;99.90;;;;;;6745800;88;20182;-77
2020/12/13 23:01:44;;;;;;;9.93;2.45;;;5.70;99.90;;;;;;6747316;88;20276;-78
2020/12/13 23:11:44;;;;;;;6.45;2.03;;;5.80;99.90;;;;;;6751772;88;20245;-78
2020/12/13 23:21:45;;;;;;;7.40;2.83;;;5.80;99.90;;;;;;6746854;88;20224;-78
2020/12/13 23:31:46;;;;;;;7.35;2.50;;;5.80;99.90;;;;;;6754797;88;20225;-78
2020/12/13 23:41:46;;;;;;;9.15;2.47;;;5.90;99.90;;;;;;6747123;88;20223;-78
2020/12/13 23:51:47;;;;;;;5.12;1.60;;;6.00;99.90;;;;;;6746270;88;20784;-78
